createdAt,value
2018-11-29T00:02:45.940Z,101341.55
2018-11-29T00:06:49.500Z,101348.81
2018-11-29T00:10:53.060Z,101340.66
2018-11-29T00:14:56.520Z,101343.73
2018-11-29T00:19:00.109Z,101348.13
2018-11-29T00:23:03.707Z,101353.82
2018-11-29T00:27:07.212Z,101358.98
2018-11-29T00:31:10.813Z,101360.16
2018-11-29T00:35:15.054Z,101361.05
2018-11-29T00:39:18.540Z,101360.65
2018-11-29T00:43:22.190Z,101355.88
2018-11-29T00:47:25.735Z,101357.46
2018-11-29T00:51:29.303Z,101359.09
2018-11-29T00:55:32.836Z,101362.30
2018-11-29T00:59:36.660Z,101362.91
2018-11-29T01:03:40.254Z,101365.56
2018-11-29T01:07:43.777Z,101372.91
2018-11-29T01:11:47.320Z,101381.98
2018-11-29T01:15:50.848Z,101385.09
2018-11-29T01:19:54.373Z,101393.36
2018-11-29T01:23:57.890Z,101400.34
2018-11-29T01:28:01.410Z,101404.42
2018-11-29T01:32:04.911Z,101410.11
2018-11-29T01:36:14.961Z,101407.00
2018-11-29T01:40:22.631Z,101403.01
2018-11-29T01:44:26.599Z,101396.31
2018-11-29T01:48:30.155Z,101390.09
2018-11-29T01:52:33.817Z,101397.11
2018-11-29T01:56:37.330Z,101400.77
2018-11-29T02:00:41.226Z,101396.31
2018-11-29T02:04:44.757Z,101391.18
2018-11-29T02:08:48.238Z,101380.61
2018-11-29T02:12:53.148Z,101380.12
2018-11-29T02:16:56.613Z,101373.42
2018-11-29T02:21:00.137Z,101376.77
2018-11-29T02:25:03.654Z,101382.08
2018-11-29T02:29:07.128Z,101391.02
2018-11-29T02:33:10.646Z,101394.17
2018-11-29T02:37:16.302Z,101400.39
2018-11-29T02:41:20.238Z,101408.27
2018-11-29T02:45:24.905Z,101408.14
2018-11-29T02:49:28.359Z,101403.26
2018-11-29T02:53:31.924Z,101399.39
2018-11-29T02:57:35.979Z,101394.62
2018-11-29T03:01:39.704Z,101401.45
2018-11-29T03:05:51.512Z,101394.25
2018-11-29T03:09:55.058Z,101390.13
2018-11-29T03:13:58.639Z,101391.29
2018-11-29T03:18:02.530Z,101378.39
2018-11-29T03:22:06.420Z,101380.88
2018-11-29T03:26:10.228Z,101376.77
2018-11-29T03:30:17.174Z,101363.16
2018-11-29T03:34:20.704Z,101365.23
2018-11-29T03:38:24.264Z,101378.81
2018-11-29T03:42:27.747Z,101379.70
2018-11-29T03:46:31.334Z,101382.27
2018-11-29T03:50:34.944Z,101383.83
2018-11-29T03:54:38.503Z,101383.03
2018-11-29T03:58:42.109Z,101387.30
2018-11-29T04:02:46.747Z,101382.78
2018-11-29T04:06:50.271Z,101388.20
2018-11-29T04:10:53.849Z,101374.84
2018-11-29T04:14:57.378Z,101369.70
2018-11-29T04:19:01.563Z,101362.51
2018-11-29T04:23:05.183Z,101371.53
2018-11-29T04:27:08.664Z,101377.70
2018-11-29T04:31:12.131Z,101386.45
2018-11-29T04:35:15.652Z,101401.11
2018-11-29T04:39:19.096Z,101410.91
2018-11-29T04:43:22.648Z,101397.90
2018-11-29T04:47:26.145Z,101394.80
2018-11-29T04:51:29.865Z,101405.23
2018-11-29T04:55:33.377Z,101403.95
2018-11-29T04:59:36.835Z,101413.50
2018-11-29T05:03:40.419Z,101405.77
2018-11-29T05:07:44.010Z,101406.92
2018-11-29T05:11:47.932Z,101404.22
2018-11-29T05:15:51.507Z,101415.05
2018-11-29T05:19:55.260Z,101434.11
2018-11-29T05:24:03.239Z,101430.51
2018-11-29T05:28:06.842Z,101432.95
2018-11-29T05:32:10.362Z,101434.51
2018-11-29T05:36:13.851Z,101432.56
2018-11-29T05:40:17.913Z,101437.45
2018-11-29T05:44:21.520Z,101441.97
2018-11-29T05:48:24.996Z,101449.57
2018-11-29T05:52:28.542Z,101458.33
2018-11-29T05:56:32.063Z,101464.89
2018-11-29T06:00:35.646Z,101458.32
2018-11-29T06:04:46.563Z,101458.32
2018-11-29T06:08:50.188Z,101460.00
2018-11-29T06:12:53.754Z,101469.15
2018-11-29T06:16:57.286Z,101463.47
2018-11-29T06:21:00.929Z,101466.31
2018-11-29T06:25:04.425Z,101463.73
2018-11-29T06:29:08.043Z,101439.00
2018-11-29T06:33:11.595Z,101444.15
2018-11-29T06:37:15.162Z,101431.00
2018-11-29T06:41:18.712Z,101436.16
2018-11-29T06:45:22.651Z,101442.63
2018-11-29T06:49:26.154Z,101437.33
2018-11-29T06:53:34.929Z,101426.10
2018-11-29T06:57:38.428Z,101428.80
2018-11-29T07:01:41.919Z,101424.42
2018-11-29T07:05:45.436Z,101428.02
2018-11-29T07:09:48.929Z,101429.17
2018-11-29T07:13:52.474Z,101431.75
2018-11-29T07:17:56.242Z,101427.14
2018-11-29T07:21:59.744Z,101432.66
2018-11-29T07:26:03.355Z,101446.20
2018-11-29T07:30:14.412Z,101439.90
2018-11-29T07:34:17.987Z,101416.07
2018-11-29T07:38:21.516Z,101419.31
2018-11-29T07:42:25.094Z,101420.07
2018-11-29T07:46:28.553Z,101412.08
2018-11-29T07:50:32.060Z,101424.83
2018-11-29T07:54:35.586Z,101432.30
2018-11-29T07:58:39.052Z,101429.72
2018-11-29T08:02:42.541Z,101443.66
2018-11-29T08:06:46.072Z,101453.17
2018-11-29T08:10:49.736Z,101454.45
2018-11-29T08:14:53.600Z,101458.58
2018-11-29T08:18:57.088Z,101449.41
2018-11-29T08:23:00.849Z,101448.47
2018-11-29T08:27:04.456Z,101441.50
2018-11-29T08:31:07.925Z,101449.22
2018-11-29T08:35:13.413Z,101447.52
2018-11-29T08:39:16.893Z,101443.37
2018-11-29T08:43:20.629Z,101445.17
2018-11-29T08:47:24.202Z,101439.47
2018-11-29T08:51:27.847Z,101442.66
2018-11-29T08:55:31.378Z,101444.06
2018-11-29T08:59:34.933Z,101446.63
2018-11-29T09:03:38.873Z,101436.25
2018-11-29T09:07:43.665Z,101440.99
2018-11-29T09:11:47.224Z,101440.69
2018-11-29T09:15:50.702Z,101438.20
2018-11-29T09:19:54.154Z,101437.02
2018-11-29T09:23:57.729Z,101447.00
2018-11-29T09:28:01.476Z,101437.90
2018-11-29T09:32:05.972Z,101428.30
2018-11-29T09:36:09.547Z,101440.62
2018-11-29T09:40:15.200Z,101447.53
2018-11-29T09:44:18.842Z,101451.08
2018-11-29T09:48:22.611Z,101449.06
2018-11-29T09:52:26.861Z,101448.78
2018-11-29T09:56:30.495Z,101451.73
2018-11-29T10:00:34.303Z,101445.94
2018-11-29T10:04:37.788Z,101432.08
2018-11-29T10:08:41.406Z,101425.45
2018-11-29T10:12:45.171Z,101434.33
2018-11-29T10:16:48.737Z,101427.00
2018-11-29T10:20:52.325Z,101419.59
2018-11-29T10:24:55.877Z,101417.48
2018-11-29T10:28:59.397Z,101417.37
2018-11-29T10:33:02.943Z,101399.91
2018-11-29T10:37:06.647Z,101398.56
2018-11-29T10:41:10.161Z,101405.97
2018-11-29T10:45:16.136Z,101385.72
2018-11-29T10:49:19.685Z,101386.43
2018-11-29T10:53:23.147Z,101382.59
2018-11-29T10:57:26.727Z,101378.12
2018-11-29T11:01:31.656Z,101373.39
2018-11-29T11:05:35.177Z,101358.56
2018-11-29T11:09:38.712Z,101362.78
2018-11-29T11:13:42.315Z,101356.01
2018-11-29T11:17:45.840Z,101345.58
2018-11-29T11:21:49.370Z,101350.12
2018-11-29T11:25:53.016Z,101348.76
2018-11-29T11:29:56.602Z,101341.06
2018-11-29T11:34:00.157Z,101333.70
2018-11-29T11:38:05.031Z,101332.33
2018-11-29T11:42:08.625Z,101332.25
2018-11-29T11:46:12.269Z,101321.03
2018-11-29T11:50:20.878Z,101311.56
2018-11-29T11:54:24.381Z,101305.67
2018-11-29T11:58:27.923Z,101304.37
2018-11-29T12:02:31.576Z,101302.08
2018-11-29T12:06:35.140Z,101286.12
2018-11-29T12:10:40.396Z,101285.76
2018-11-29T12:14:43.935Z,101273.50
2018-11-29T12:18:47.609Z,101271.71
2018-11-29T12:22:51.321Z,101260.88
2018-11-29T12:26:54.865Z,101269.34
2018-11-29T12:31:06.060Z,101260.97
2018-11-29T12:35:12.989Z,101253.41
2018-11-29T12:39:19.336Z,101240.96
2018-11-29T12:43:23.137Z,101243.25
2018-11-29T12:47:26.966Z,101241.55
2018-11-29T12:51:30.578Z,101238.96
2018-11-29T12:55:34.400Z,101229.59
2018-11-29T12:59:38.284Z,101237.67
2018-11-29T13:03:42.125Z,101238.27
2018-11-29T13:07:45.717Z,101230.19
2018-11-29T13:11:49.229Z,101239.65
2018-11-29T13:15:53.097Z,101235.77
2018-11-29T13:19:56.820Z,101217.72
2018-11-29T13:24:03.118Z,101221.81
2018-11-29T13:28:07.485Z,101222.22
2018-11-29T13:32:11.441Z,101212.73
2018-11-29T13:36:14.986Z,101200.38
2018-11-29T13:44:22.188Z,101213.34
2018-11-29T13:48:25.721Z,101205.77
2018-11-29T13:52:29.936Z,101208.16
2018-11-29T13:56:34.201Z,101214.13
2018-11-29T14:00:40.257Z,101205.66
2018-11-29T14:04:43.900Z,101208.05
2018-11-29T14:08:47.856Z,101204.36
2018-11-29T14:12:52.491Z,101210.44
2018-11-29T14:16:56.476Z,101210.73
2018-11-29T14:20:59.967Z,101209.75
2018-11-29T14:25:10.516Z,101202.58
2018-11-29T14:29:14.479Z,101214.03
2018-11-29T14:33:18.701Z,101213.81
2018-11-29T14:37:22.477Z,101224.78
2018-11-29T14:41:26.027Z,101217.99
2018-11-29T14:45:29.495Z,101222.48
2018-11-29T14:49:33.426Z,101222.57
2018-11-29T14:53:37.005Z,101216.70
2018-11-29T14:57:53.798Z,101215.08
2018-11-29T15:01:57.538Z,101221.95
2018-11-29T15:06:02.133Z,101222.85
2018-11-29T15:10:07.749Z,101223.42
2018-11-29T15:14:11.295Z,101214.17
2018-11-29T15:18:15.051Z,101223.39
2018-11-29T15:22:18.678Z,101219.81
2018-11-29T15:26:22.761Z,101217.81
2018-11-29T15:30:26.313Z,101216.41
2018-11-29T15:34:29.818Z,101220.67
2018-11-29T15:38:33.419Z,101208.52
2018-11-29T15:42:36.937Z,101211.80
2018-11-29T15:46:40.421Z,101220.75
2018-11-29T15:50:43.982Z,101217.17
2018-11-29T15:54:47.526Z,101222.34
2018-11-29T15:58:52.013Z,101208.41
2018-11-29T16:02:56.690Z,101215.88
2018-11-29T16:07:00.233Z,101217.11
2018-11-29T16:11:03.777Z,101217.92
2018-11-29T16:15:10.400Z,101218.60
2018-11-29T16:19:14.012Z,101213.59
2018-11-29T16:23:17.988Z,101215.22
2018-11-29T16:27:21.464Z,101215.70
2018-11-29T16:31:25.025Z,101205.43
2018-11-29T16:35:28.538Z,101200.44
2018-11-29T16:39:32.112Z,101194.97
2018-11-29T16:43:35.608Z,101194.75
2018-11-29T16:47:39.269Z,101201.99
2018-11-29T16:51:42.815Z,101205.54
2018-11-29T16:55:46.286Z,101190.80
2018-11-29T16:59:49.836Z,101189.17
2018-11-29T17:03:53.360Z,101193.23
2018-11-29T17:07:56.873Z,101189.53
2018-11-29T17:12:00.392Z,101188.83
2018-11-29T17:16:04.097Z,101181.62
2018-11-29T17:20:13.045Z,101182.09
2018-11-29T17:24:16.581Z,101184.38
2018-11-29T17:28:20.121Z,101176.88
2018-11-29T17:32:23.629Z,101173.18
2018-11-29T17:36:27.267Z,101166.13
2018-11-29T17:40:31.085Z,101167.01
2018-11-29T17:44:34.622Z,101162.02
2018-11-29T17:48:38.137Z,101173.13
2018-11-29T17:52:41.652Z,101170.84
2018-11-29T17:56:45.124Z,101174.59
2018-11-29T18:00:50.320Z,101169.13
2018-11-29T18:04:53.828Z,101166.83
2018-11-29T18:08:57.425Z,101172.55
2018-11-29T18:13:17.284Z,101165.55
2018-11-29T18:17:20.838Z,101163.91
2018-11-29T18:21:24.347Z,101165.27
2018-11-29T18:25:27.907Z,101161.68
2018-11-29T18:29:31.746Z,101164.27
2018-11-29T18:33:35.850Z,101168.02
2018-11-29T18:37:40.988Z,101164.03
2018-11-29T18:41:44.797Z,101157.09
2018-11-29T18:45:48.642Z,101154.76
2018-11-29T18:49:52.225Z,101150.41
2018-11-29T18:53:56.031Z,101146.13
2018-11-29T18:58:00.274Z,101144.43
2018-11-29T19:02:05.914Z,101129.73
2018-11-29T19:06:09.850Z,101117.11
2018-11-29T19:10:17.472Z,101132.61
2018-11-29T19:14:20.965Z,101133.16
2018-11-29T19:18:24.554Z,101125.98
2018-11-29T19:22:28.061Z,101130.27
2018-11-29T19:26:31.917Z,101133.50
2018-11-29T19:30:35.881Z,101132.33
2018-11-29T19:34:39.450Z,101135.59
2018-11-29T19:38:43.240Z,101132.20
2018-11-29T19:42:46.815Z,101131.20
2018-11-29T19:46:50.589Z,101130.20
2018-11-29T19:50:54.114Z,101113.95
2018-11-29T19:54:57.650Z,101112.19
2018-11-29T19:59:02.363Z,101124.80
2018-11-29T20:03:06.166Z,101117.34
2018-11-29T20:07:09.741Z,101125.09
2018-11-29T20:11:13.294Z,101122.80
2018-11-29T20:15:19.455Z,101122.28
2018-11-29T20:19:22.927Z,101121.27
2018-11-29T20:23:26.414Z,101109.25
2018-11-29T20:27:29.940Z,101109.14
2018-11-29T20:31:33.567Z,101111.23
2018-11-29T20:35:37.043Z,101108.14
2018-11-29T20:39:40.567Z,101117.74
2018-11-29T20:43:44.055Z,101105.61
2018-11-29T20:47:48.159Z,101105.01
2018-11-29T20:51:51.695Z,101098.03
2018-11-29T20:55:55.134Z,101088.11
2018-11-29T20:59:58.653Z,101094.62
2018-11-29T21:04:02.188Z,101086.93
2018-11-29T21:08:06.791Z,101081.53
2018-11-29T21:12:10.374Z,101087.70
2018-11-29T21:16:13.941Z,101084.64
2018-11-29T21:20:20.296Z,101074.08
2018-11-29T21:24:23.841Z,101081.82
2018-11-29T21:28:29.206Z,101068.92
2018-11-29T21:32:33.284Z,101064.53
2018-11-29T21:36:36.756Z,101048.44
2018-11-29T21:40:40.790Z,101048.44
2018-11-29T21:44:44.288Z,101036.20
2018-11-29T21:48:50.135Z,101042.36
2018-11-29T21:52:54.877Z,101042.28
2018-11-29T21:56:58.365Z,101047.69
2018-11-29T22:01:01.923Z,101043.73
2018-11-29T22:05:05.953Z,101048.38
2018-11-29T22:09:09.545Z,101039.64
2018-11-29T22:13:13.092Z,101030.61
2018-11-29T22:17:16.694Z,101034.96
2018-11-29T22:21:20.875Z,101030.32
2018-11-29T22:25:24.461Z,101023.98
2018-11-29T22:29:28.026Z,101041.36
2018-11-29T22:33:31.847Z,101028.28
2018-11-29T22:37:35.508Z,101028.16
2018-11-29T22:41:39.135Z,101020.95
2018-11-29T22:45:42.753Z,101017.59
2018-11-29T22:49:46.269Z,101012.91
2018-11-29T22:53:49.792Z,101013.84
2018-11-29T22:57:53.312Z,100998.72
2018-11-29T23:01:56.881Z,101006.98
2018-11-29T23:06:00.434Z,101008.27
2018-11-29T23:10:04.755Z,100988.52
2018-11-29T23:14:09.046Z,100988.52
2018-11-29T23:18:12.711Z,100971.45
2018-11-29T23:22:16.200Z,100967.98
2018-11-29T23:26:19.711Z,100953.27
2018-11-29T23:30:23.255Z,100951.98
2018-11-29T23:34:26.765Z,100946.56
2018-11-29T23:38:30.273Z,100936.50
2018-11-29T23:42:33.868Z,100944.24
2018-11-29T23:46:37.413Z,100937.90
2018-11-29T23:50:40.925Z,100927.76
2018-11-29T23:54:44.467Z,100923.66
2018-11-29T23:58:48.000Z,100925.17
